createdAt,value
2017-08-12T14:15:45.241Z,75.40
2017-08-12T14:18:12.892Z,76.50
2017-08-12T14:20:40.507Z,75.70
2017-08-12T14:23:08.265Z,77.70
2017-08-12T14:25:35.984Z,75.30
2017-08-12T14:28:04.371Z,73.70
2017-08-12T14:30:31.996Z,73.60
2017-08-12T14:32:59.667Z,75.40
2017-08-12T14:35:27.320Z,75.40
2017-08-12T14:37:55.404Z,74.80
2017-08-12T14:40:24.057Z,76.30
2017-08-12T14:42:51.853Z,76.30
2017-08-12T14:45:19.487Z,75.10
2017-08-12T14:47:47.260Z,74.90
2017-08-12T14:50:14.881Z,74.00
2017-08-12T14:52:42.492Z,73.60
2017-08-12T14:55:10.159Z,75.20
2017-08-12T14:57:38.437Z,75.10
2017-08-12T15:00:06.860Z,76.20
2017-08-12T15:02:34.528Z,76.20
2017-08-12T15:05:02.359Z,76.00
2017-08-12T15:07:29.971Z,77.40
2017-08-12T15:09:57.650Z,77.20
2017-08-12T15:12:25.696Z,77.60
2017-08-12T15:14:53.590Z,74.80
2017-08-12T15:17:21.597Z,76.20
2017-08-12T15:19:49.222Z,77.20
2017-08-12T15:22:16.869Z,78.30
2017-08-12T15:24:44.530Z,78.30
2017-08-12T15:27:12.148Z,77.30
2017-08-12T15:32:07.749Z,77.20
2017-08-12T15:34:35.367Z,77.10
2017-08-12T15:37:03.292Z,76.60
2017-08-12T15:39:30.970Z,78.50
2017-08-12T15:41:58.602Z,74.40
2017-08-12T15:44:26.229Z,76.20
2017-08-12T15:46:54.756Z,75.40
2017-08-12T15:49:22.787Z,76.20
2017-08-12T15:51:50.401Z,76.00
2017-08-12T15:54:18.068Z,74.90
2017-08-12T15:56:45.697Z,75.50
2017-08-12T15:59:13.490Z,74.50
2017-08-12T16:01:42.532Z,75.50
2017-08-12T16:04:10.347Z,72.60
2017-08-12T16:06:38.012Z,74.50
2017-08-12T16:09:05.679Z,74.30
2017-08-12T16:11:33.288Z,73.40
2017-08-12T16:14:00.907Z,73.80
2017-08-12T16:16:28.779Z,74.70
2017-08-12T16:18:56.622Z,74.40
2017-08-12T16:21:24.233Z,75.90
2017-08-12T16:23:51.941Z,76.20
2017-08-12T16:26:19.566Z,75.40
2017-08-12T16:28:48.269Z,76.60
2017-08-12T16:31:15.956Z,76.50
2017-08-12T16:33:43.577Z,75.90
2017-08-12T16:36:11.146Z,75.90
2017-08-12T16:38:39.055Z,77.50
2017-08-12T16:41:06.681Z,77.30
2017-08-12T16:43:34.584Z,76.00
2017-08-12T16:46:02.262Z,76.70
2017-08-12T16:48:30.116Z,77.40
2017-08-12T16:50:58.311Z,77.70
2017-08-12T16:53:26.706Z,77.60
2017-08-12T16:55:54.366Z,76.30
2017-08-12T16:58:22.058Z,77.60
2017-08-12T17:00:49.715Z,76.90
2017-08-12T17:03:17.361Z,76.40
2017-08-12T17:05:45.304Z,77.20
2017-08-12T17:08:12.938Z,77.10
2017-08-12T17:10:40.560Z,76.20
2017-08-12T17:13:09.218Z,76.40
2017-08-12T17:15:36.839Z,76.30
2017-08-12T17:18:04.454Z,76.60
2017-08-12T17:20:33.158Z,76.80
2017-08-12T17:23:01.545Z,75.90
2017-08-12T17:25:29.177Z,76.40
2017-08-12T17:27:56.844Z,76.90
2017-08-12T17:30:24.468Z,75.80
2017-08-12T17:32:52.110Z,76.60
2017-08-12T17:35:19.805Z,76.60
2017-08-12T17:37:48.081Z,77.40
2017-08-12T17:40:16.144Z,77.10
2017-08-12T17:42:43.819Z,77.50
2017-08-12T17:45:11.437Z,76.20
2017-08-12T17:47:39.820Z,77.40
2017-08-12T17:50:08.278Z,77.60
2017-08-12T17:52:35.896Z,77.70
2017-08-12T17:55:03.492Z,77.30
2017-08-12T17:57:31.760Z,78.20
2017-08-12T17:59:59.897Z,78.50
2017-08-12T18:02:27.648Z,78.10
2017-08-12T18:04:56.423Z,79.40
2017-08-12T18:07:24.316Z,79.70
2017-08-12T18:09:52.029Z,78.80
2017-08-12T18:12:19.752Z,78.70
2017-08-12T18:14:47.401Z,79.80
2017-08-12T18:17:16.017Z,78.90
2017-08-12T18:19:44.320Z,79.00
2017-08-12T18:22:12.134Z,79.40
2017-08-12T18:24:40.038Z,79.20
2017-08-12T18:27:07.807Z,79.70
2017-08-12T18:29:35.448Z,79.30
2017-08-12T18:32:03.088Z,79.80
2017-08-12T18:34:31.174Z,80.20
2017-08-12T18:36:58.869Z,80.90
2017-08-12T18:39:26.569Z,81.70
2017-08-12T18:41:55.039Z,81.20
2017-08-12T18:44:23.108Z,80.70
2017-08-12T18:46:51.015Z,81.30
2017-08-12T18:49:18.836Z,81.70
2017-08-12T18:51:46.675Z,81.70
2017-08-12T18:54:14.808Z,82.10
2017-08-12T18:56:42.466Z,82.20
2017-08-12T18:59:10.889Z,83.00
2017-08-12T19:01:38.581Z,83.20
2017-08-12T19:04:06.705Z,82.20
2017-08-12T19:06:35.078Z,82.60
2017-08-12T19:09:03.928Z,82.60
2017-08-12T19:11:31.775Z,82.60
2017-08-12T19:14:00.158Z,83.90
2017-08-12T19:16:27.825Z,84.30
2017-08-12T19:18:55.589Z,84.40
2017-08-12T19:21:23.513Z,83.70
2017-08-12T19:23:51.244Z,84.70
2017-08-12T19:26:19.991Z,85.20
2017-08-12T19:28:47.881Z,85.40
2017-08-12T19:31:15.569Z,85.20
2017-08-12T19:33:43.309Z,86.00
2017-08-12T19:36:11.929Z,87.00
2017-08-12T19:38:40.319Z,85.70
2017-08-12T19:41:08.976Z,85.40
2017-08-12T19:43:36.653Z,85.20
2017-08-12T19:46:04.328Z,85.90
2017-08-12T19:48:32.025Z,86.30
2017-08-12T19:50:59.977Z,85.90
2017-08-12T19:53:27.925Z,87.00
2017-08-12T19:55:55.888Z,88.00
2017-08-12T19:58:23.758Z,87.40
2017-08-12T20:00:51.515Z,87.80
2017-08-12T20:03:19.233Z,88.40
2017-08-12T20:05:47.774Z,88.70
2017-08-12T20:08:15.893Z,89.10
2017-08-12T20:10:44.490Z,89.40
2017-08-12T20:13:12.472Z,89.90
2017-08-12T20:15:40.142Z,89.20
2017-08-12T20:18:08.111Z,89.60
2017-08-12T20:20:35.782Z,89.90
2017-08-12T20:23:04.196Z,90.10
2017-08-12T20:25:32.128Z,90.30
2017-08-12T20:28:00.027Z,90.40
2017-08-12T20:30:28.521Z,90.50
2017-08-12T20:32:57.314Z,91.10
2017-08-12T20:35:25.125Z,91.20
2017-08-12T20:37:52.891Z,91.60
2017-08-12T20:40:20.595Z,91.70
2017-08-12T20:42:49.049Z,92.40
2017-08-12T20:45:16.805Z,92.20
2017-08-12T20:47:44.494Z,92.00
2017-08-12T20:50:12.112Z,92.30
2017-08-12T20:52:39.735Z,92.50
2017-08-12T20:55:08.779Z,92.80
2017-08-12T20:57:36.465Z,92.80
2017-08-12T21:00:04.118Z,92.80
2017-08-12T21:02:31.992Z,93.20
2017-08-12T21:04:59.759Z,93.40
2017-08-12T21:07:27.384Z,93.20
2017-08-12T21:09:55.293Z,93.70
2017-08-12T21:12:22.913Z,93.70
2017-08-12T21:14:50.742Z,93.60
2017-08-12T21:17:18.590Z,93.90
2017-08-12T21:19:47.285Z,94.40
2017-08-12T21:22:15.456Z,94.30
2017-08-12T21:24:44.140Z,94.60
2017-08-12T21:27:12.532Z,94.60
2017-08-12T21:29:41.080Z,94.70
2017-08-12T21:32:10.501Z,95.00
2017-08-12T21:34:39.760Z,95.10
2017-08-12T21:37:07.588Z,95.00
2017-08-12T21:39:35.659Z,94.90
2017-08-12T21:42:03.700Z,94.90
2017-08-12T21:44:32.755Z,95.00
2017-08-12T21:47:02.005Z,95.10
2017-08-12T21:49:30.778Z,95.30
2017-08-12T21:51:58.752Z,95.30
2017-08-12T21:54:27.832Z,95.50
2017-08-12T21:56:56.724Z,95.70
2017-08-12T21:59:25.777Z,95.80
2017-08-12T22:01:54.560Z,96.00
2017-08-12T22:04:23.666Z,95.80
2017-08-12T22:06:53.034Z,96.40
2017-08-12T22:09:21.786Z,96.40
2017-08-12T22:11:49.958Z,96.40
2017-08-12T22:14:18.389Z,96.70
2017-08-12T22:16:47.507Z,96.90
2017-08-12T22:19:15.770Z,97.00
2017-08-12T22:21:46.108Z,97.20
2017-08-12T22:24:14.485Z,97.20
2017-08-12T22:26:42.730Z,97.40
2017-08-12T22:29:11.879Z,97.60
2017-08-12T22:31:40.179Z,97.60
2017-08-12T22:34:08.002Z,97.70
2017-08-12T22:36:35.889Z,97.90
2017-08-12T22:39:04.766Z,97.90
2017-08-12T22:41:32.848Z,98.00
2017-08-12T22:44:00.919Z,98.00
2017-08-12T22:46:29.726Z,98.20
2017-08-12T22:48:57.965Z,98.30
2017-08-12T22:51:27.350Z,98.10
2017-08-12T22:53:55.299Z,98.20
2017-08-12T22:56:25.152Z,98.20
2017-08-12T22:58:54.183Z,98.20
2017-08-12T23:01:23.261Z,98.20
2017-08-12T23:03:51.587Z,98.20
2017-08-12T23:06:19.516Z,98.30
2017-08-12T23:08:48.413Z,98.20
2017-08-12T23:11:16.365Z,98.20
2017-08-12T23:13:44.835Z,98.20
2017-08-12T23:16:12.553Z,98.20
2017-08-12T23:18:40.375Z,98.30
2017-08-12T23:21:08.290Z,98.50
2017-08-12T23:23:36.072Z,98.60
2017-08-12T23:26:03.700Z,98.70
2017-08-12T23:28:31.336Z,98.60
2017-08-12T23:31:00.381Z,98.90
2017-08-12T23:33:28.001Z,98.90
2017-08-12T23:35:55.661Z,98.80
2017-08-12T23:38:23.330Z,98.90
2017-08-12T23:40:50.958Z,99.00
2017-08-12T23:43:19.236Z,99.30
2017-08-12T23:45:47.555Z,99.50
2017-08-12T23:48:15.173Z,99.90
2017-08-12T23:50:43.028Z,99.50
2017-08-12T23:53:10.776Z,99.70
2017-08-12T23:55:38.412Z,99.60
2017-08-12T23:58:06.166Z,99.70
